Time;durP1;ratioP1;P1;durP2;ratioP2;P2;SDS_P1;SDS_P2;PMS_P1;PMS_P2;Temp;Humidity;BMP_temperature;BMP_pressure;BME280_temperature;BME280_humidity;BME280_pressure;Samples;Min_cycle;Max_cycle;Signal;HPM_P1;HPM_P2
2022/04/11 00:00:54;;;;;;;1.10;1.00;;;;;3.20;97168.00;;;;4957092;28;20942;-70
2022/04/11 00:03:26;;;;;;;1.63;1.27;;;;;3.00;97171.00;;;;4953569;28;20885;-71
2022/04/11 00:05:57;;;;;;;5.30;1.03;;;;;2.80;97156.00;;;;4954545;28;20439;-70
2022/04/11 00:08:28;;;;;;;0.80;0.80;;;;;2.90;97158.00;;;;4953295;28;20475;-71
2022/04/11 00:10:59;;;;;;;0.70;0.70;;;;;3.10;97147.00;;;;4945586;28;20432;-70
2022/04/11 00:13:30;;;;;;;0.97;0.97;;;;;3.10;97152.00;;;;4954022;28;20439;-71
2022/04/11 00:16:02;;;;;;;0.90;0.77;;;;;3.10;97150.00;;;;4954949;28;20861;-71
2022/04/11 00:18:34;;;;;;;0.73;0.73;;;;;3.20;97156.00;;;;4952381;28;20440;-71
2022/04/11 00:21:05;;;;;;;0.80;0.80;;;;;3.00;97151.00;;;;4954752;28;20491;-71
2022/04/11 00:23:36;;;;;;;1.40;1.30;;;;;2.90;97148.00;;;;4953859;28;20483;-71
2022/04/11 00:26:07;;;;;;;3.60;1.47;;;;;2.80;97148.00;;;;4954829;28;20939;-71
2022/04/11 00:28:38;;;;;;;1.23;1.07;;;;;2.90;97146.00;;;;4958914;28;20470;-70
2022/04/11 00:31:10;;;;;;;1.57;1.27;;;;;3.00;97154.00;;;;4958872;28;20446;-71
2022/04/11 00:33:42;;;;;;;2.67;1.10;;;;;2.90;97160.00;;;;4954271;28;20514;-71
2022/04/11 00:36:13;;;;;;;2.63;1.20;;;;;2.70;97148.00;;;;4956574;28;20447;-71
2022/04/11 00:38:44;;;;;;;2.07;1.70;;;;;2.90;97159.00;;;;4958449;28;20439;-71
2022/04/11 00:41:15;;;;;;;1.10;0.93;;;;;2.80;97153.00;;;;4955711;28;20813;-71
2022/04/11 00:43:46;;;;;;;3.03;1.10;;;;;2.50;97144.00;;;;4956207;28;20483;-70
2022/04/11 00:46:18;;;;;;;1.27;1.17;;;;;2.50;97157.00;;;;4961134;28;20458;-71
2022/04/11 00:48:50;;;;;;;0.97;0.87;;;;;2.50;97159.00;;;;4964021;28;20449;-71
2022/04/11 00:51:22;;;;;;;1.30;1.20;;;;;2.40;97152.00;;;;4971576;28;20946;-71
2022/04/11 00:53:54;;;;;;;4.70;1.10;;;;;2.50;97157.00;;;;4969860;28;20570;-70
2022/04/11 00:56:27;;;;;;;0.77;0.77;;;;;2.70;97163.00;;;;4962996;28;20490;-71
2022/04/11 00:59:01;;;;;;;2.73;0.90;;;;;2.60;97163.00;;;;4955457;28;20523;-71
2022/04/11 01:01:34;;;;;;;2.23;1.30;;;;;2.60;97167.00;;;;4960674;28;20467;-70
2022/04/11 01:04:06;;;;;;;1.10;1.00;;;;;2.50;97171.00;;;;4959680;28;20542;-71
2022/04/11 01:06:37;;;;;;;2.00;1.03;;;;;2.50;97164.00;;;;4947411;28;20451;-71
2022/04/11 01:09:08;;;;;;;1.20;0.90;;;;;2.50;97161.00;;;;4952455;28;20439;-70
2022/04/11 01:11:39;;;;;;;1.43;1.03;;;;;2.50;97164.00;;;;4953655;28;20490;-71
2022/04/11 01:14:10;;;;;;;1.07;1.00;;;;;2.60;97150.00;;;;4944121;28;20974;-71
2022/04/11 01:16:48;;;;;;;1.20;1.20;;;;;2.70;97157.00;;;;4953098;28;20443;-70
2022/04/11 01:19:19;;;;;;;1.27;1.03;;;;;2.60;97163.00;;;;4952620;28;20491;-70
2022/04/11 01:21:52;;;;;;;2.53;1.47;;;;;2.50;97154.00;;;;4953876;28;20547;-70
2022/04/11 01:24:23;;;;;;;1.20;1.10;;;;;2.10;97148.00;;;;4952938;28;20534;-71
2022/04/11 01:26:55;;;;;;;1.03;0.93;;;;;2.20;97148.00;;;;4949551;28;20444;-71
2022/04/11 01:29:26;;;;;;;1.03;0.97;;;;;2.50;97150.00;;;;4953419;28;20798;-70
2022/04/11 01:31:58;;;;;;;0.77;0.77;;;;;2.60;97146.00;;;;4953190;28;20487;-72
2022/04/11 01:34:29;;;;;;;0.90;0.90;;;;;2.50;97148.00;;;;4952689;28;20825;-71
2022/04/11 01:37:01;;;;;;;1.17;1.07;;;;;2.30;97143.00;;;;4953743;28;20444;-71
2022/04/11 01:39:37;;;;;;;1.77;1.03;;;;;2.00;97140.00;;;;4952325;28;20439;-72
2022/04/11 01:42:08;;;;;;;1.30;0.77;;;;;2.20;97147.00;;;;4953072;28;20444;-71
2022/04/11 01:44:40;;;;;;;1.57;1.47;;;;;2.30;97143.00;;;;4952028;28;20487;-71
2022/04/11 01:47:11;;;;;;;0.73;0.73;;;;;2.30;97148.00;;;;4952830;28;20451;-70
2022/04/11 01:49:42;;;;;;;1.30;1.20;;;;;2.30;97137.00;;;;4951629;28;20975;-71
2022/04/11 01:52:14;;;;;;;0.93;0.73;;;;;2.00;97139.00;;;;4952038;28;20444;-71
2022/04/11 01:54:46;;;;;;;1.10;0.90;;;;;2.00;97145.00;;;;4943432;28;20474;-70
2022/04/11 01:57:27;;;;;;;1.63;1.10;;;;;1.70;97153.00;;;;4952532;28;20431;-69
2022/04/11 01:59:59;;;;;;;1.10;1.00;;;;;1.90;97153.00;;;;4951650;28;20448;-71
2022/04/11 02:02:31;;;;;;;3.93;1.20;;;;;1.90;97151.00;;;;4952717;28;20444;-71
2022/04/11 02:05:04;;;;;;;1.87;1.07;;;;;1.90;97144.00;;;;4952272;28;20490;-69
2022/04/11 02:07:37;;;;;;;2.67;0.87;;;;;1.80;97146.00;;;;4951115;28;20933;-71
2022/04/11 02:10:09;;;;;;;2.23;1.03;;;;;1.60;97140.00;;;;4952966;28;20475;-70
2022/04/11 02:12:40;;;;;;;2.73;1.33;;;;;1.50;97137.00;;;;4951963;28;20446;-71
2022/04/11 02:15:12;;;;;;;2.07;1.33;;;;;1.10;97142.00;;;;4952341;28;20470;-71
2022/04/11 02:17:43;;;;;;;1.57;1.17;;;;;1.20;97145.00;;;;4950996;28;20534;-70
2022/04/11 02:20:14;;;;;;;1.40;1.20;;;;;1.40;97158.00;;;;4952473;28;20451;-71
2022/04/11 02:22:49;;;;;;;2.43;1.50;;;;;1.20;97150.00;;;;4951731;28;20534;-71
2022/04/11 02:25:22;;;;;;;1.00;1.00;;;;;0.80;97156.00;;;;4947020;28;20491;-71
2022/04/11 02:27:54;;;;;;;1.53;1.43;;;;;0.50;97153.00;;;;4950166;28;20448;-71
2022/04/11 02:30:26;;;;;;;0.70;0.70;;;;;0.40;97155.00;;;;4951919;28;20478;-71
2022/04/11 02:32:58;;;;;;;4.13;1.67;;;;;0.70;97150.00;;;;4951136;28;20455;-72
2022/04/11 02:35:29;;;;;;;1.17;1.10;;;;;1.00;97160.00;;;;4952501;28;20475;-70
2022/04/11 02:38:01;;;;;;;1.13;1.03;;;;;1.00;97162.00;;;;4951352;28;20724;-71
2022/04/11 02:40:32;;;;;;;1.20;1.20;;;;;0.50;97153.00;;;;4949294;28;20446;-71
2022/04/11 02:43:03;;;;;;;1.90;1.03;;;;;0.30;97166.00;;;;4951840;28;20450;-70
2022/04/11 02:45:34;;;;;;;2.20;1.10;;;;;0.50;97157.00;;;;4951455;28;21006;-71
2022/04/11 02:48:07;;;;;;;1.00;1.00;;;;;0.60;97156.00;;;;4951344;28;21173;-71
2022/04/11 02:50:38;;;;;;;1.00;0.80;;;;;0.20;97157.00;;;;4952022;28;20450;-70
2022/04/11 02:53:10;;;;;;;1.10;1.10;;;;;0.10;97169.00;;;;4950999;28;20444;-71
2022/04/11 02:55:42;;;;;;;3.27;1.20;;;;;0.10;97163.00;;;;4951422;28;20436;-71
2022/04/11 02:58:13;;;;;;;1.33;1.23;;;;;0.10;97157.00;;;;4956646;28;20482;-71
2022/04/11 03:00:44;;;;;;;0.80;0.80;;;;;0.00;97157.00;;;;4950498;28;20447;-71
2022/04/11 03:03:15;;;;;;;2.40;1.50;;;;;0.10;97160.00;;;;4950763;28;20459;-71
2022/04/11 03:05:46;;;;;;;1.83;1.10;;;;;0.30;97163.00;;;;4951112;28;20482;-70
2022/04/11 03:08:18;;;;;;;2.00;1.27;;;;;0.30;97164.00;;;;4950739;28;20479;-70
2022/04/11 03:10:50;;;;;;;2.00;1.00;;;;;0.30;97169.00;;;;4949411;28;20463;-70
2022/04/11 03:13:21;;;;;;;1.63;1.10;;;;;0.30;97174.00;;;;4951213;28;20817;-71
2022/04/11 03:15:53;;;;;;;1.30;1.20;;;;;0.20;97165.00;;;;4951326;28;20424;-70
2022/04/11 03:18:24;;;;;;;2.13;1.07;;;;;0.20;97171.00;;;;4949572;28;20812;-70
2022/04/11 03:20:55;;;;;;;1.90;1.80;;;;;0.00;97169.00;;;;4951369;28;20439;-70
2022/04/11 03:23:27;;;;;;;1.30;1.07;;;;;-0.20;97164.00;;;;4950004;28;20488;-71
2022/04/11 03:25:59;;;;;;;2.97;1.43;;;;;-0.20;97168.00;;;;4951050;28;20482;-70
2022/04/11 03:28:30;;;;;;;1.20;1.10;;;;;-0.10;97168.00;;;;4945366;28;20436;-72
2022/04/11 03:31:01;;;;;;;1.00;1.00;;;;;-0.10;97160.00;;;;4951446;28;20443;-70
2022/04/11 03:33:32;;;;;;;1.57;1.10;;;;;0.00;97160.00;;;;4950832;28;20805;-71
2022/04/11 03:36:03;;;;;;;1.67;0.93;;;;;-0.40;97164.00;;;;4950844;28;20538;-71
2022/04/11 03:38:35;;;;;;;1.43;1.27;;;;;-0.60;97157.00;;;;4949987;28;20444;-70
2022/04/11 03:41:06;;;;;;;1.00;1.00;;;;;-0.90;97168.00;;;;4950171;28;20451;-71
2022/04/11 03:43:37;;;;;;;1.57;1.47;;;;;-0.90;97185.00;;;;4950033;28;20456;-71
2022/04/11 03:46:08;;;;;;;1.33;1.10;;;;;-0.70;97170.00;;;;4982993;23;20489;-87
2022/04/11 03:48:40;;;;;;;1.83;1.73;;;;;-0.50;97183.00;;;;4984790;28;20439;-85
2022/04/11 03:51:11;;;;;;;2.30;1.83;;;;;-0.40;97172.00;;;;4985884;28;20458;-84
2022/04/11 03:53:43;;;;;;;3.33;1.37;;;;;-0.40;97177.00;;;;4989054;28;20434;-84
2022/04/11 03:56:17;;;;;;;1.30;1.20;;;;;-0.40;97179.00;;;;4982029;28;20442;-84
2022/04/11 03:58:48;;;;;;;1.57;1.37;;;;;-0.90;97189.00;;;;4987311;28;20461;-85
2022/04/11 04:01:19;;;;;;;1.17;1.03;;;;;-0.80;97184.00;;;;4985921;28;20531;-86
2022/04/11 04:03:50;;;;;;;1.23;1.13;;;;;-0.70;97189.00;;;;4989185;28;20438;-85
2022/04/11 04:06:21;;;;;;;0.83;0.83;;;;;-0.60;97198.00;;;;4983159;28;20470;-85
2022/04/11 04:08:53;;;;;;;7.20;1.23;;;;;-0.50;97187.00;;;;4984590;28;20836;-85
2022/04/11 04:11:25;;;;;;;1.00;1.00;;;;;-0.60;97186.00;;;;4990327;28;20563;-84
2022/04/11 04:13:56;;;;;;;1.47;1.37;;;;;-0.40;97189.00;;;;4986894;28;20512;-84
2022/04/11 04:16:27;;;;;;;1.03;1.03;;;;;-0.20;97193.00;;;;4982464;28;20493;-85
2022/04/11 04:18:58;;;;;;;1.03;0.90;;;;;-0.60;97190.00;;;;4981556;28;20812;-85
2022/04/11 04:21:29;;;;;;;1.00;1.00;;;;;-0.80;97205.00;;;;4987124;28;20501;-85
2022/04/11 04:24:01;;;;;;;1.37;1.10;;;;;-1.10;97183.00;;;;4980696;28;20904;-85
2022/04/11 04:26:33;;;;;;;1.43;1.27;;;;;-0.80;97192.00;;;;4983063;28;20442;-86
2022/04/11 04:29:04;;;;;;;2.90;2.60;;;;;-1.00;97196.00;;;;4983025;23;20501;-84
2022/04/11 04:31:53;;;;;;;1.90;1.70;;;;;-1.10;97193.00;;;;4980442;28;20942;-86
2022/04/11 04:34:43;;;;;;;3.17;1.40;;;;;-0.90;97198.00;;;;4988158;28;20446;-85
2022/04/11 04:37:15;;;;;;;1.00;1.00;;;;;-0.90;97198.00;;;;4977182;28;20521;-85
2022/04/11 04:39:47;;;;;;;0.80;0.80;;;;;-1.10;97198.00;;;;4977152;28;20457;-84
2022/04/11 04:42:21;;;;;;;0.80;0.80;;;;;-1.30;97197.00;;;;4981887;28;20438;-86
2022/04/11 04:44:53;;;;;;;0.87;0.87;;;;;-1.00;97204.00;;;;4982209;28;20437;-85
2022/04/11 04:47:25;;;;;;;2.10;1.47;;;;;-0.90;97198.00;;;;4990786;28;20442;-87
2022/04/11 04:49:57;;;;;;;2.40;1.17;;;;;-0.60;97204.00;;;;4994289;28;20444;-85
2022/04/11 04:52:28;;;;;;;1.47;1.37;;;;;-0.60;97199.00;;;;4989461;28;20438;-85
2022/04/11 04:55:02;;;;;;;1.63;1.10;;;;;-0.50;97198.00;;;;4982378;28;20433;-86
2022/04/11 04:57:34;;;;;;;1.60;1.33;;;;;-0.70;97204.00;;;;4986062;28;20445;-85
2022/04/11 05:00:08;;;;;;;1.47;1.37;;;;;-0.90;97206.00;;;;4982573;28;21672;-84
2022/04/11 05:02:40;;;;;;;2.00;1.20;;;;;-1.10;97196.00;;;;4983059;28;20551;-86
2022/04/11 05:05:13;;;;;;;1.47;1.20;;;;;-1.30;97200.00;;;;4983063;28;20434;-87
2022/04/11 05:07:45;;;;;;;1.53;1.43;;;;;-1.30;97199.00;;;;4990099;28;20492;-85
2022/04/11 05:10:20;;;;;;;1.20;1.20;;;;;-1.20;97203.00;;;;4985188;28;20486;-85
2022/04/11 05:12:52;;;;;;;1.53;1.40;;;;;-1.00;97197.00;;;;4984378;28;20458;-87
2022/04/11 05:15:23;;;;;;;1.20;1.20;;;;;-0.90;97208.00;;;;4982439;28;21135;-88
2022/04/11 05:17:54;;;;;;;0.60;0.60;;;;;-1.20;97195.00;;;;4980322;28;20516;-85
2022/04/11 05:20:25;;;;;;;2.17;1.50;;;;;-0.70;97209.00;;;;4981723;28;20437;-86
2022/04/11 05:22:58;;;;;;;1.13;1.03;;;;;-0.80;97195.00;;;;4988811;28;20486;-87
2022/04/11 05:25:31;;;;;;;3.07;0.90;;;;;-0.60;97191.00;;;;4990397;28;20941;-85
2022/04/11 05:28:03;;;;;;;2.33;1.60;;;;;-0.40;97209.00;;;;4987964;28;20571;-85
2022/04/11 05:30:35;;;;;;;3.73;1.87;;;;;-0.30;97202.00;;;;4983150;28;20466;-85
2022/04/11 05:33:07;;;;;;;1.57;1.47;;;;;-0.40;97203.00;;;;4990084;28;20470;-86
2022/04/11 05:35:39;;;;;;;1.20;1.10;;;;;-0.30;97212.00;;;;4994179;28;21012;-88
2022/04/11 05:38:10;;;;;;;1.43;1.33;;;;;0.00;97220.00;;;;4993481;28;20466;-85
2022/04/11 05:40:42;;;;;;;1.20;1.17;;;;;0.10;97218.00;;;;4992928;28;20438;-85
2022/04/11 05:43:15;;;;;;;3.33;1.30;;;;;0.40;97223.00;;;;4988287;28;20454;-86
2022/04/11 05:45:46;;;;;;;2.20;1.47;;;;;0.30;97220.00;;;;4986502;28;20529;-84
2022/04/11 05:48:17;;;;;;;1.33;1.10;;;;;0.30;97218.00;;;;4987512;28;20484;-85
2022/04/11 05:50:48;;;;;;;1.37;1.20;;;;;0.40;97213.00;;;;4991291;28;20438;-85
2022/04/11 05:53:20;;;;;;;1.17;0.83;;;;;0.30;97211.00;;;;4985294;28;20443;-85
2022/04/11 05:55:52;;;;;;;2.00;1.27;;;;;0.30;97206.00;;;;4991702;28;20469;-85
2022/04/11 05:58:24;;;;;;;0.83;0.80;;;;;0.30;97217.00;;;;4986039;28;20960;-85
2022/04/11 06:01:00;;;;;;;1.50;1.23;;;;;0.70;97216.00;;;;4983149;28;20461;-85
2022/04/11 06:03:31;;;;;;;0.90;0.87;;;;;1.00;97217.00;;;;4986623;28;20442;-86
2022/04/11 06:06:02;;;;;;;0.90;0.90;;;;;1.10;97213.00;;;;4988860;28;20450;-85
2022/04/11 06:08:33;;;;;;;1.40;1.23;;;;;1.30;97222.00;;;;4987393;28;20466;-85
2022/04/11 06:11:05;;;;;;;1.43;1.33;;;;;1.30;97217.00;;;;4984313;28;20442;-86
2022/04/11 06:13:37;;;;;;;1.00;1.00;;;;;1.40;97218.00;;;;4981956;28;20530;-85
2022/04/11 06:16:08;;;;;;;3.00;1.40;;;;;1.80;97221.00;;;;4987605;28;20527;-85
2022/04/11 06:18:39;;;;;;;1.07;1.03;;;;;2.20;97222.00;;;;4981705;28;20957;-85
2022/04/11 06:21:10;;;;;;;2.73;1.67;;;;;2.60;97222.00;;;;4980360;28;20469;-84
2022/04/11 06:23:41;;;;;;;2.03;1.60;;;;;2.70;97230.00;;;;4987521;28;20454;-85
2022/04/11 06:26:13;;;;;;;4.43;2.00;;;;;2.90;97224.00;;;;4997660;28;20493;-85
2022/04/11 06:28:45;;;;;;;2.47;1.50;;;;;3.10;97218.00;;;;4995360;28;20533;-84
2022/04/11 06:31:16;;;;;;;1.80;1.70;;;;;3.30;97224.00;;;;5000710;28;20441;-86
2022/04/11 06:33:49;;;;;;;1.60;1.50;;;;;3.20;97215.00;;;;4982174;28;20529;-87
2022/04/11 06:36:21;;;;;;;6.77;3.50;;;;;3.30;97206.00;;;;4994447;28;21104;-87
2022/04/11 06:38:53;;;;;;;14.63;7.27;;;;;3.00;97211.00;;;;4993461;28;20473;-86
2022/04/11 06:41:27;;;;;;;7.27;4.67;;;;;3.20;97205.00;;;;4994725;28;20440;-87
2022/04/11 06:43:59;;;;;;;7.47;3.17;;;;;3.40;97211.00;;;;4978124;28;20435;-88
2022/04/11 06:46:30;;;;;;;4.37;2.10;;;;;3.70;97220.00;;;;4990514;28;20617;-87
2022/04/11 06:49:01;;;;;;;6.10;3.07;;;;;4.00;97214.00;;;;4992555;28;20512;-87
2022/04/11 06:51:32;;;;;;;3.07;2.00;;;;;4.20;97207.00;;;;4994111;28;20441;-86
2022/04/11 06:54:03;;;;;;;4.13;2.73;;;;;4.30;97226.00;;;;4993980;28;20434;-87
2022/04/11 06:56:35;;;;;;;7.67;2.77;;;;;4.30;97222.00;;;;4994284;28;20485;-85
2022/04/11 06:59:07;;;;;;;5.97;2.63;;;;;4.70;97222.00;;;;4993688;28;20469;-87
2022/04/11 07:01:38;;;;;;;3.93;1.90;;;;;4.90;97219.00;;;;4983934;28;20438;-86
2022/04/11 07:04:09;;;;;;;3.33;2.33;;;;;5.40;97226.00;;;;4993115;28;20430;-87
2022/04/11 07:06:44;;;;;;;3.37;2.03;;;;;5.60;97219.00;;;;4993281;28;20440;-87
2022/04/11 07:09:15;;;;;;;6.50;2.40;;;;;5.80;97223.00;;;;4985187;28;20624;-87
2022/04/11 07:11:47;;;;;;;2.10;1.90;;;;;5.90;97218.00;;;;4993444;28;20442;-86
2022/04/11 07:14:20;;;;;;;3.40;2.03;;;;;6.40;97216.00;;;;4993630;28;20298;-87
2022/04/11 07:16:52;;;;;;;3.07;2.10;;;;;6.70;97218.00;;;;4990411;28;20210;-87
2022/04/11 07:19:24;;;;;;;4.37;1.70;;;;;6.80;97216.00;;;;4984131;28;20253;-87
2022/04/11 07:21:55;;;;;;;4.23;2.40;;;;;7.00;97212.00;;;;4991097;28;20200;-87
2022/04/11 07:24:26;;;;;;;2.77;1.80;;;;;7.20;97213.00;;;;4989111;28;20207;-86
2022/04/11 07:26:58;;;;;;;5.13;2.20;;;;;7.40;97213.00;;;;4992633;28;20770;-85
2022/04/11 07:29:30;;;;;;;2.73;1.67;;;;;7.70;97222.00;;;;4988557;28;20235;-88
2022/04/11 07:32:01;;;;;;;4.10;1.57;;;;;8.00;97213.00;;;;4988344;28;20202;-85
2022/04/11 07:34:33;;;;;;;3.43;1.37;;;;;8.20;97212.00;;;;4982482;28;20779;-85
2022/04/11 07:37:05;;;;;;;2.63;1.57;;;;;8.30;97222.00;;;;4991446;28;20229;-87
2022/04/11 07:39:37;;;;;;;4.03;1.80;;;;;8.30;97227.00;;;;4987452;28;20225;-87
2022/04/11 07:42:09;;;;;;;1.57;1.20;;;;;8.50;97225.00;;;;4988392;28;20210;-87
2022/04/11 07:44:41;;;;;;;4.87;1.80;;;;;8.60;97227.00;;;;4981991;28;20198;-86
2022/04/11 07:47:12;;;;;;;1.87;1.50;;;;;8.80;97214.00;;;;4984776;28;20553;-88
2022/04/11 07:49:43;;;;;;;1.13;1.00;;;;;8.90;97216.00;;;;4980551;28;20215;-84
2022/04/11 07:52:14;;;;;;;1.30;1.10;;;;;9.00;97217.00;;;;4984093;28;20203;-88
2022/04/11 07:54:45;;;;;;;1.53;1.00;;;;;9.20;97222.00;;;;4988665;28;20261;-87
2022/04/11 07:57:17;;;;;;;1.20;1.03;;;;;9.50;97218.00;;;;4992265;28;20222;-87
2022/04/11 07:59:57;;;;;;;1.30;1.20;;;;;9.50;97211.00;;;;4981664;28;20206;-86
2022/04/11 08:02:31;;;;;;;1.20;1.13;;;;;9.30;97216.00;;;;4986706;28;20286;-87
2022/04/11 08:05:03;;;;;;;4.13;1.07;;;;;9.30;97210.00;;;;4992356;28;20203;-87
2022/04/11 08:07:34;;;;;;;1.20;1.07;;;;;9.70;97215.00;;;;4989796;28;20226;-84
2022/04/11 08:10:06;;;;;;;2.60;1.60;;;;;8.60;97212.00;;;;4985692;28;20651;-87
2022/04/11 08:12:39;;;;;;;1.53;1.03;;;;;9.50;97214.00;;;;4983768;28;20291;-86
2022/04/11 08:15:11;;;;;;;3.80;1.63;;;;;10.00;97211.00;;;;4984497;28;20217;-86
2022/04/11 08:17:43;;;;;;;5.17;1.93;;;;;9.50;97209.00;;;;4982840;28;20210;-88
2022/04/11 08:20:17;;;;;;;1.43;1.33;;;;;10.10;97203.00;;;;4979888;28;20284;-87
2022/04/11 08:22:49;;;;;;;3.40;1.20;;;;;10.30;97206.00;;;;4983401;28;20561;-85
2022/04/11 08:25:20;;;;;;;3.90;1.80;;;;;10.30;97203.00;;;;4986309;28;20245;-87
2022/04/11 08:27:56;;;;;;;3.00;1.40;;;;;10.50;97197.00;;;;4981714;28;20227;-86
2022/04/11 08:30:29;;;;;;;2.40;1.40;;;;;10.10;97197.00;;;;4985725;28;20203;-85
2022/04/11 08:33:01;;;;;;;2.27;1.50;;;;;10.20;97198.00;;;;4983956;28;20211;-85
2022/04/11 08:35:32;;;;;;;2.00;1.80;;;;;10.30;97195.00;;;;4983707;28;20663;-86
2022/04/11 08:38:03;;;;;;;1.60;1.40;;;;;10.10;97183.00;;;;4982430;28;20227;-83
2022/04/11 08:40:34;;;;;;;2.53;1.10;;;;;10.50;97192.00;;;;4983329;28;20264;-87
2022/04/11 08:43:07;;;;;;;4.60;1.80;;;;;10.80;97189.00;;;;4978078;28;20309;-85
2022/04/11 08:45:40;;;;;;;4.47;1.63;;;;;10.10;97191.00;;;;4983254;28;20202;-85
2022/04/11 08:48:11;;;;;;;2.63;1.30;;;;;10.30;97193.00;;;;4984154;28;20747;-86
2022/04/11 08:50:43;;;;;;;1.43;1.33;;;;;10.80;97194.00;;;;4983069;28;20222;-85
2022/04/11 08:53:14;;;;;;;1.53;1.43;;;;;11.20;97194.00;;;;4984170;28;21398;-84
2022/04/11 08:55:46;;;;;;;2.30;1.47;;;;;11.20;97188.00;;;;4989054;28;20253;-86
2022/04/11 08:58:18;;;;;;;4.10;1.53;;;;;10.60;97173.00;;;;4987997;28;20948;-87
2022/04/11 09:00:50;;;;;;;2.50;1.40;;;;;11.30;97181.00;;;;4978781;28;20567;-87
2022/04/11 09:03:21;;;;;;;4.50;1.70;;;;;11.80;97185.00;;;;4977045;28;20222;-86
2022/04/11 09:06:05;;;;;;;2.60;1.43;;;;;12.10;97187.00;;;;4982779;28;20210;-86
2022/04/11 09:08:43;;;;;;;2.70;1.20;;;;;12.20;97178.00;;;;4980759;28;20223;-85
2022/04/11 09:11:14;;;;;;;2.80;1.63;;;;;11.80;97172.00;;;;4984035;28;20216;-86
2022/04/11 09:13:51;;;;;;;4.00;1.37;;;;;12.20;97176.00;;;;4983361;28;20210;-87
2022/04/11 09:16:22;;;;;;;2.13;1.47;;;;;12.60;97179.00;;;;4984057;28;20199;-86
2022/04/11 09:18:54;;;;;;;2.63;1.53;;;;;13.00;97188.00;;;;4998005;28;20226;-85
2022/04/11 09:21:27;;;;;;;2.13;1.40;;;;;12.70;97176.00;;;;4998550;28;20203;-85
2022/04/11 09:24:15;;;;;;;2.27;1.40;;;;;13.00;97181.00;;;;4991025;28;20262;-85
2022/04/11 09:26:47;;;;;;;2.17;1.40;;;;;12.30;97177.00;;;;4977726;28;20682;-86
2022/04/11 09:29:20;;;;;;;3.77;1.30;;;;;12.60;97165.00;;;;4979912;28;20226;-86
2022/04/11 09:31:52;;;;;;;2.40;1.43;;;;;12.40;97159.00;;;;4980577;28;20215;-87
2022/04/11 09:34:25;;;;;;;2.20;1.43;;;;;11.60;97163.00;;;;4975439;28;20210;-88
2022/04/11 09:36:58;;;;;;;4.67;1.70;;;;;12.80;97173.00;;;;4979145;28;20729;-85
2022/04/11 09:39:32;;;;;;;1.53;1.20;;;;;12.80;97166.00;;;;4979971;28;20241;-85
2022/04/11 09:42:05;;;;;;;4.00;1.50;;;;;12.10;97174.00;;;;4985340;28;20203;-86
2022/04/11 09:44:38;;;;;;;2.00;1.50;;;;;11.70;97177.00;;;;4983317;28;20673;-85
2022/04/11 09:47:19;;;;;;;2.67;1.67;;;;;12.50;97158.00;;;;4984187;28;20565;-86
2022/04/11 09:49:50;;;;;;;1.73;1.40;;;;;13.10;97149.00;;;;4977078;28;20233;-87
2022/04/11 09:52:23;;;;;;;1.30;1.20;;;;;13.60;97152.00;;;;4978494;28;20698;-86
2022/04/11 09:54:59;;;;;;;1.83;1.30;;;;;14.10;97151.00;;;;4973932;28;20199;-86
2022/04/11 09:57:32;;;;;;;2.50;1.60;;;;;13.50;97154.00;;;;4975845;28;20207;-86
2022/04/11 10:00:05;;;;;;;3.43;1.50;;;;;14.60;97153.00;;;;4980388;28;20581;-86
2022/04/11 10:02:38;;;;;;;2.00;1.30;;;;;12.60;97141.00;;;;4980951;28;20199;-87
2022/04/11 10:05:10;;;;;;;1.67;1.57;;;;;13.60;97151.00;;;;4982967;28;20269;-84
2022/04/11 10:07:41;;;;;;;1.93;1.50;;;;;13.40;97146.00;;;;4974235;28;20210;-85
2022/04/11 10:10:15;;;;;;;1.40;1.30;;;;;14.50;97145.00;;;;4982046;28;20202;-87
2022/04/11 10:12:47;;;;;;;2.73;1.37;;;;;14.50;97131.00;;;;4975820;28;20202;-87
2022/04/11 10:15:20;;;;;;;3.23;1.93;;;;;15.00;97134.00;;;;4987437;28;20947;-87
2022/04/11 10:17:54;;;;;;;1.50;1.40;;;;;15.10;97144.00;;;;4976159;28;20308;-86
2022/04/11 10:20:27;;;;;;;4.27;1.63;;;;;15.60;97124.00;;;;4976221;28;20334;-86
2022/04/11 10:23:11;;;;;;;1.93;1.57;;;;;15.80;97131.00;;;;4975976;28;20203;-86
2022/04/11 10:25:46;;;;;;;4.37;1.60;;;;;15.30;97133.00;;;;4975068;28;20204;-86
2022/04/11 10:28:19;;;;;;;4.80;1.73;;;;;13.70;97120.00;;;;4982644;28;20234;-90
2022/04/11 10:31:10;;;;;;;1.50;1.30;;;;;13.00;97127.00;;;;4989291;28;20286;-86
2022/04/11 10:33:46;;;;;;;2.97;1.80;;;;;14.80;97122.00;;;;4992443;28;20238;-88
2022/04/11 10:36:27;;;;;;;2.30;1.47;;;;;15.50;97131.00;;;;4989918;28;20238;-86
2022/04/11 10:39:29;;;;;;;2.57;1.60;;;;;16.00;97124.00;;;;4990242;28;20231;-86
2022/04/11 10:42:24;;;;;;;3.00;1.50;;;;;16.30;97127.00;;;;4953325;29;20212;-87
2022/04/11 10:44:56;;;;;;;2.10;1.50;;;;;14.90;97113.00;;;;4984033;28;20266;-85
2022/04/11 10:47:34;;;;;;;3.97;1.60;;;;;13.70;97106.00;;;;4993497;28;20230;-88
2022/04/11 10:50:35;;;;;;;2.40;1.67;;;;;13.70;97103.00;;;;4991140;28;20684;-86
2022/04/11 10:53:16;;;;;;;4.20;1.47;;;;;15.40;97108.00;;;;4990012;28;20210;-91
2022/04/11 10:55:58;;;;;;;1.73;1.63;;;;;16.30;97106.00;;;;4988506;28;20211;-89
2022/04/11 10:59:00;;;;;;;1.93;1.30;;;;;16.90;97113.00;;;;4990329;28;20301;-87
2022/04/11 11:01:59;;;;;;;1.83;1.73;;;15.50;51.90;16.90;97105.00;;;;4946475;29;20698;-88
2022/04/11 11:04:33;;;;;;;1.63;1.53;;;15.70;51.10;14.60;97084.00;;;;4984227;28;20207;-89
2022/04/11 11:07:24;;;;;;;1.90;1.80;;;15.40;49.10;15.70;97075.00;;;;4985899;28;20234;-88
2022/04/11 11:09:58;;;;;;;4.13;1.67;;;15.40;50.00;16.30;97077.00;;;;4985015;28;20231;-88
2022/04/11 11:12:29;;;;;;;1.33;1.23;;;15.40;52.20;16.00;97083.00;;;;4993087;28;20203;-88
2022/04/11 11:15:27;;;;;;;2.73;1.17;;;15.60;50.00;16.10;97086.00;;;;4982586;28;20209;-89
2022/04/11 11:17:59;;;;;;;1.77;1.43;;;15.60;49.70;16.20;97091.00;;;;4976269;28;20227;-88
2022/04/11 11:20:34;;;;;;;1.60;1.50;;;15.60;49.60;16.30;97075.00;;;;4984190;28;20209;-86
2022/04/11 11:23:17;;;;;;;1.30;1.20;;;15.70;48.00;17.30;97087.00;;;;4978121;28;20205;-86
2022/04/11 11:25:50;;;;;;;1.20;1.10;;;15.90;48.40;16.30;97067.00;;;;4977681;28;20690;-87
2022/04/11 11:28:22;;;;;;;3.13;1.83;;;15.90;49.80;17.00;97070.00;;;;4980871;28;20613;-87
2022/04/11 11:35:51;;;;;;;2.17;1.40;;;16.50;50.80;17.10;97079.00;;;;4972986;28;20227;-87
2022/04/11 11:38:25;;;;;;;1.27;1.20;;;16.90;47.50;13.90;97065.00;;;;4942407;28;20292;-87
2022/04/11 11:40:58;;;;;;;2.40;1.60;;;16.70;45.50;16.60;97059.00;;;;4947867;29;20293;-88
2022/04/11 11:48:25;;;;;;;1.43;1.33;;;16.50;47.60;15.30;97042.00;;;;4919980;29;20236;-86
2022/04/11 11:51:00;;;;;;;1.90;1.33;;;15.40;47.40;14.80;97025.00;;;;4922609;29;20485;-86
2022/04/11 11:53:43;;;;;;;1.77;1.33;;;15.30;47.20;14.00;97038.00;;;;4921226;29;20836;-88
2022/04/11 12:00:11;;;;;;;1.30;1.20;;;15.00;48.20;16.90;97042.00;;;;4976289;28;20491;-88
2022/04/11 12:07:08;;;;;;;1.67;1.57;;;16.10;48.30;16.90;97035.00;;;;4992927;23;20258;-85
2022/04/11 12:09:41;;;;;;;2.17;1.97;;;16.70;46.50;16.10;97042.00;;;;4985824;28;20233;-87
2022/04/11 12:12:12;;;;;;;2.13;1.60;;;16.70;46.40;17.20;97026.00;;;;4996567;28;20227;-84
2022/04/11 12:15:02;;;;;;;3.50;1.30;;;16.80;46.10;15.60;97009.00;;;;4981287;28;20541;-86
2022/04/11 12:17:34;;;;;;;1.60;1.50;;;16.90;44.90;14.30;97004.00;;;;4993172;28;20203;-81
2022/04/11 12:20:23;;;;;;;1.90;1.70;;;16.10;45.90;15.50;97014.00;;;;4992873;28;20233;-85
2022/04/11 12:23:09;;;;;;;1.87;1.67;;;15.50;47.60;18.20;97029.00;;;;4999051;28;20561;-85
2022/04/11 12:25:42;;;;;;;1.67;1.57;;;15.90;48.90;17.10;97036.00;;;;4992927;28;20190;-85
2022/04/11 12:28:19;;;;;;;1.17;1.07;;;16.40;47.20;19.00;97039.00;;;;4988365;28;20246;-84
2022/04/11 12:31:12;;;;;;;3.23;1.83;;;16.90;48.90;20.30;97018.00;;;;4994581;28;20596;-83
2022/04/11 12:33:46;;;;;;;2.10;1.37;;;17.60;46.90;20.40;97026.00;;;;4991039;28;20222;-83
2022/04/11 12:36:20;;;;;;;2.07;1.20;;;18.20;46.50;21.10;97013.00;;;;4987531;28;20212;-85
2022/04/11 12:38:55;;;;;;;2.37;1.93;;;18.70;46.50;21.30;97021.00;;;;4993167;28;20710;-86
2022/04/11 12:41:35;;;;;;;2.77;1.37;;;19.20;45.50;19.40;97008.00;;;;4983236;28;20704;-84
2022/04/11 12:44:12;;;;;;;1.73;1.63;;;19.10;43.70;18.50;97004.00;;;;4982141;28;20554;-84
2022/04/11 12:46:46;;;;;;;1.63;1.50;;;19.10;44.00;20.00;97006.00;;;;4993048;28;20229;-85
2022/04/11 12:49:19;;;;;;;1.60;1.50;;;19.00;43.90;17.30;96990.00;;;;4990677;28;20245;-84
2022/04/11 12:51:59;;;;;;;1.80;1.60;;;18.80;43.20;16.60;96970.00;;;;4997790;28;20316;-85
2022/04/11 12:54:39;;;;;;;1.80;1.70;;;18.10;43.70;19.80;96991.00;;;;4989893;28;20569;-85
2022/04/11 12:57:12;;;;;;;1.40;1.30;;;17.90;46.20;21.70;96996.00;;;;4992812;28;20202;-83
2022/04/11 12:59:45;;;;;;;1.50;1.23;;;18.40;46.90;22.00;96985.00;;;;4984822;28;20219;-82